Time;durP1;ratioP1;P1;durP2;ratioP2;P2;SDS_P1;SDS_P2;PMS_P1;PMS_P2;Temp;Humidity;BMP_temperature;BMP_pressure;BME280_temperature;BME280_humidity;BME280_pressure;Samples;Min_cycle;Max_cycle;Signal;HPM_P1;HPM_P2
2022/05/17 00:02:09;;;;;;;;;;;;;;;;;;5048698;28;19917;-56
2022/05/17 00:04:35;;;;;;;;;;;;;;;;;;5049145;28;19975;-57
2022/05/17 00:07:00;;;;;;;;;;;;;;;;;;5049001;28;20016;-56
2022/05/17 00:09:26;;;;;;;;;;;;;;;;;;5049259;28;19913;-56
2022/05/17 00:11:51;;;;;;;;;;;;;;;;;;5046343;28;19925;-56
2022/05/17 00:14:17;;;;;;;;;;;;;;;;;;5045669;28;19917;-57
2022/05/17 00:16:43;;;;;;;;;;;;;;;;;;5049343;28;19959;-56
2022/05/17 00:19:09;;;;;;;;;;;;;;;;;;5048310;28;20370;-57
2022/05/17 00:21:36;;;;;;;;;;;;;;;;;;5048708;28;20033;-56
2022/05/17 00:24:02;;;;;;;;;;;;;;;;;;5050034;28;19928;-56
2022/05/17 00:26:27;;;;;;;;;;;;;;;;;;5048684;28;19921;-56
2022/05/17 00:28:52;;;;;;;;;;;;;;;;;;5047903;28;19929;-54
2022/05/17 00:31:17;;;;;;;;;;;;;;;;;;5047167;28;19924;-56
2022/05/17 00:33:43;;;;;;;;;;;;;;;;;;5048005;28;19951;-56
2022/05/17 00:36:08;;;;;;;;;;;;;;;;;;5048792;28;19917;-55
2022/05/17 00:38:34;;;;;;;;;;;;;;;;;;5048330;28;19938;-57
2022/05/17 00:40:59;;;;;;;;;;;;;;;;;;5049077;28;19917;-57
2022/05/17 00:46:39;;;;;;;;;;;;;;;;;;5046971;28;19931;-57
2022/05/17 00:49:06;;;;;;;;;;;;;;;;;;5047030;28;20359;-56
2022/05/17 00:51:31;;;;;;;;;;;;;;;;;;5046790;28;20008;-56
2022/05/17 00:54:00;;;;;;;;;;;;;;;;;;5046553;28;20015;-56
2022/05/17 00:56:26;;;;;;;;;;;;;;;;;;5048293;28;19920;-58
2022/05/17 00:58:54;;;;;;;;;;;;;;;;;;5047988;28;19923;-58
2022/05/17 01:01:21;;;;;;;;;;;;;;;;;;5048540;28;19966;-57
2022/05/17 01:03:53;;;;;;;;;;;;;;;;;;5048247;28;19917;-58
2022/05/17 01:06:20;;;;;;;;;;;;;;;;;;5048108;28;19921;-58
2022/05/17 01:08:45;;;;;;;;;;;;;;;;;;5047337;28;19929;-57
2022/05/17 01:11:11;;;;;;;;;;;;;;;;;;5045320;28;20432;-57
2022/05/17 01:16:21;;;;;;;;;;;;;;;;;;5047649;28;19924;-57
2022/05/17 01:18:46;;;;;;;;;;;;;;;;;;5047516;28;19917;-56
2022/05/17 01:21:12;;;;;;;;;;;;;;;;;;5049265;28;20330;-58
2022/05/17 01:23:38;;;;;;;;;;;;;;;;;;5047304;28;19924;-57
2022/05/17 01:26:05;;;;;;;;;;;;;;;;;;5047769;28;20509;-57
2022/05/17 01:28:31;;;;;;;;;;;;;;;;;;5046296;28;19917;-57
2022/05/17 01:31:03;;;;;;;;;;;;;;;;;;5048426;28;19944;-57
2022/05/17 01:33:29;;;;;;;;;;;;;;;;;;5048475;28;19917;-56
2022/05/17 01:35:55;;;;;;;;;;;;;;;;;;5048096;28;19955;-56
2022/05/17 01:38:20;;;;;;;;;;;;;;;;;;5047458;28;19956;-57
2022/05/17 01:40:45;;;;;;;;;;;;;;;;;;5048256;28;20015;-56
2022/05/17 01:43:10;;;;;;;;;;;;;;;;;;5051616;28;19917;-57
2022/05/17 01:45:36;;;;;;;;;;;;;;;;;;5051559;28;20124;-57
2022/05/17 01:48:01;;;;;;;;;;;;;;;;;;5051262;28;20283;-57
2022/05/17 01:50:26;;;;;;;;;;;;;;;;;;5052507;28;19917;-58
2022/05/17 01:52:52;;;;;;;;;;;;;;;;;;5051728;28;19920;-56
2022/05/17 01:55:17;;;;;;;;;;;;;;;;;;5051781;28;19956;-57
2022/05/17 01:57:43;;;;;;;;;;;;;;;;;;5051701;28;20378;-57
2022/05/17 02:00:10;;;;;;;;;;;;;;;;;;5051384;28;19921;-57
2022/05/17 02:02:36;;;;;;;;;;;;;;;;;;5049869;28;19921;-58
2022/05/17 02:05:02;;;;;;;;;;;;;;;;;;5051579;28;19944;-58
2022/05/17 02:07:27;;;;;;;;;;;;;;;;;;5050531;28;20262;-56
2022/05/17 02:09:53;;;;;;;;;;;;;;;;;;5052196;28;20440;-58
2022/05/17 02:12:18;;;;;;;;;;;;;;;;;;5050973;28;19963;-57
2022/05/17 02:14:44;;;;;;;;;;;;;;;;;;5051612;28;20274;-55
2022/05/17 02:17:09;;;;;;;;;;;;;;;;;;5050703;28;20416;-55
2022/05/17 02:19:34;;;;;;;;;;;;;;;;;;5050746;28;19917;-56
2022/05/17 02:22:00;;;;;;;;;;;;;;;;;;5051479;28;19927;-56
2022/05/17 02:24:27;;;;;;;;;;;;;;;;;;5049089;28;19916;-56
2022/05/17 02:26:53;;;;;;;;;;;;;;;;;;5049152;28;20373;-57
2022/05/17 02:29:18;;;;;;;;;;;;;;;;;;5050683;28;20003;-57
2022/05/17 02:31:43;;;;;;;;;;;;;;;;;;5050656;28;20274;-56
2022/05/17 02:34:09;;;;;;;;;;;;;;;;;;5050710;28;20020;-55
2022/05/17 02:36:34;;;;;;;;;;;;;;;;;;5048748;28;20302;-56
2022/05/17 02:39:00;;;;;;;;;;;;;;;;;;5050173;28;20323;-56
2022/05/17 02:41:25;;;;;;;;;;;;;;;;;;5050519;28;20376;-55
2022/05/17 02:43:50;;;;;;;;;;;;;;;;;;5051106;28;19928;-57
2022/05/17 02:46:16;;;;;;;;;;;;;;;;;;5050455;28;19921;-55
2022/05/17 02:48:41;;;;;;;;;;;;;;;;;;5050405;28;20286;-58
2022/05/17 02:51:17;;;;;;;;;;;;;;;;;;5051074;28;19920;-56
2022/05/17 02:53:42;;;;;;;;;;;;;;;;;;5050427;28;20283;-56
2022/05/17 02:56:08;;;;;;;;;;;;;;;;;;5050236;28;19947;-57
2022/05/17 02:58:33;;;;;;;;;;;;;;;;;;5050621;28;19917;-58
2022/05/17 03:00:59;;;;;;;;;;;;;;;;;;5050656;28;19936;-57
2022/05/17 03:03:24;;;;;;;;;;;;;;;;;;5050409;28;20297;-57
2022/05/17 03:05:50;;;;;;;;;;;;;;;;;;5046259;28;20016;-55
2022/05/17 03:08:15;;;;;;;;;;;;;;;;;;5050141;28;20085;-56
2022/05/17 03:10:40;;;;;;;;;;;;;;;;;;5050032;28;19913;-56
2022/05/17 03:13:09;;;;;;;;;;;;;;;;;;5050447;28;20364;-57
2022/05/17 03:15:34;;;;;;;;;;;;;;;;;;5050576;28;20274;-56
2022/05/17 03:17:59;;;;;;;;;;;;;;;;;;5048658;28;19917;-57
2022/05/17 03:20:24;;;;;;;;;;;;;;;;;;5050210;28;20038;-56
2022/05/17 03:22:50;;;;;;;;;;;;;;;;;;5051016;28;20351;-58
2022/05/17 03:25:15;;;;;;;;;;;;;;;;;;5050055;28;19923;-57
2022/05/17 03:27:40;;;;;;;;;;;;;;;;;;5048594;28;19929;-56
2022/05/17 03:30:06;;;;;;;;;;;;;;;;;;5050556;28;19920;-57
2022/05/17 03:32:31;;;;;;;;;;;;;;;;;;5049390;28;20290;-56
2022/05/17 03:34:57;;;;;;;;;;;;;;;;;;5049760;28;20380;-57
2022/05/17 03:37:22;;;;;;;;;;;;;;;;;;5049745;28;19927;-56
2022/05/17 03:39:48;;;;;;;;;;;;;;;;;;5047653;28;19917;-57
2022/05/17 03:42:13;;;;;;;;;;;;;;;;;;5049833;28;19920;-57
2022/05/17 03:44:39;;;;;;;;;;;;;;;;;;5049065;28;19970;-56
2022/05/17 03:47:05;;;;;;;;;;;;;;;;;;5049088;28;19986;-56
2022/05/17 03:49:30;;;;;;;;;;;;;;;;;;5048805;28;20347;-57
2022/05/17 03:51:55;;;;;;;;;;;;;;;;;;5049952;28;19917;-57
2022/05/17 03:54:22;;;;;;;;;;;;;;;;;;5050049;28;19959;-57
2022/05/17 03:56:48;;;;;;;;;;;;;;;;;;5047172;28;19938;-55
2022/05/17 03:59:13;;;;;;;;;;;;;;;;;;5049049;28;19917;-57
2022/05/17 04:01:39;;;;;;;;;;;;;;;;;;5047812;28;19924;-57
2022/05/17 04:04:04;;;;;;;;;;;;;;;;;;5048867;28;19982;-57
2022/05/17 04:06:30;;;;;;;;;;;;;;;;;;5049063;28;19932;-56
2022/05/17 04:08:55;;;;;;;;;;;;;;;;;;5048204;28;19917;-56
2022/05/17 04:11:21;;;;;;;;;;;;;;;;;;5049711;28;19916;-55
2022/05/17 04:13:46;;;;;;;;;;;;;;;;;;5047003;28;19917;-55
2022/05/17 04:16:11;;;;;;;;;;;;;;;;;;5049273;28;20290;-58
2022/05/17 04:18:36;;;;;;;;;;;;;;;;;;5048122;28;19928;-57
2022/05/17 04:21:03;;;;;;;;;;;;;;;;;;5049461;28;20118;-56
2022/05/17 04:23:29;;;;;;;;;;;;;;;;;;5049084;28;20300;-57
2022/05/17 04:25:54;;;;;;;;;;;;;;;;;;5049283;28;19921;-56
2022/05/17 04:28:20;;;;;;;;;;;;;;;;;;5048012;28;20026;-55
2022/05/17 04:30:45;;;;;;;;;;;;;;;;;;5049330;28;19923;-57
2022/05/17 04:33:11;;;;;;;;;;;;;;;;;;5048731;28;19921;-56
2022/05/17 04:35:36;;;;;;;;;;;;;;;;;;5048414;28;19971;-55
2022/05/17 04:38:02;;;;;;;;;;;;;;;;;;5048095;28;20342;-56
2022/05/17 04:40:28;;;;;;;;;;;;;;;;;;5049223;28;19970;-56
2022/05/17 04:42:56;;;;;;;;;;;;;;;;;;5048860;28;19921;-56
2022/05/17 04:45:22;;;;;;;;;;;;;;;;;;5048204;28;20504;-57
2022/05/17 04:47:47;;;;;;;;;;;;;;;;;;5046984;28;20015;-57
2022/05/17 04:50:13;;;;;;;;;;;;;;;;;;5048488;28;19917;-57
2022/05/17 04:52:39;;;;;;;;;;;;;;;;;;5048463;28;20089;-56
2022/05/17 04:55:05;;;;;;;;;;;;;;;;;;5048110;28;20015;-55
2022/05/17 04:57:30;;;;;;;;;;;;;;;;;;5046166;28;20364;-56
2022/05/17 04:59:57;;;;;;;;;;;;;;;;;;5049430;28;20055;-55
2022/05/17 05:02:22;;;;;;;;;;;;;;;;;;5048493;28;20299;-56
2022/05/17 05:04:48;;;;;;;;;;;;;;;;;;5047951;28;19924;-56
2022/05/17 05:07:13;;;;;;;;;;;;;;;;;;5045373;28;19922;-56
2022/05/17 05:09:38;;;;;;;;;;;;;;;;;;5048398;28;19917;-56
2022/05/17 05:12:04;;;;;;;;;;;;;;;;;;5048569;28;19917;-57
2022/05/17 05:14:29;;;;;;;;;;;;;;;;;;5048251;28;19923;-57
2022/05/17 05:16:54;;;;;;;;;;;;;;;;;;5041562;28;19916;-57
2022/05/17 05:19:20;;;;;;;;;;;;;;;;;;5048251;28;20179;-55
2022/05/17 05:21:45;;;;;;;;;;;;;;;;;;5049021;28;19913;-57
2022/05/17 05:24:11;;;;;;;;;;;;;;;;;;5047512;28;19928;-57
2022/05/17 05:26:37;;;;;;;;;;;;;;;;;;5047678;28;19921;-57
2022/05/17 05:29:03;;;;;;;;;;;;;;;;;;5047539;28;19921;-55
2022/05/17 05:31:28;;;;;;;;;;;;;;;;;;5047350;28;19920;-54
2022/05/17 05:33:53;;;;;;;;;;;;;;;;;;5048996;28;19943;-54
2022/05/17 05:36:19;;;;;;;;;;;;;;;;;;5048340;28;20382;-55
2022/05/17 05:38:44;;;;;;;;;;;;;;;;;;5043368;28;19924;-56
2022/05/17 05:41:11;;;;;;;;;;;;;;;;;;5045583;28;19959;-55
2022/05/17 05:43:36;;;;;;;;;;;;;;;;;;5047744;28;19917;-56
2022/05/17 05:46:01;;;;;;;;;;;;;;;;;;5046847;28;19928;-54
2022/05/17 05:48:26;;;;;;;;;;;;;;;;;;5046592;28;20011;-55
2022/05/17 05:50:53;;;;;;;;;;;;;;;;;;5043689;28;19921;-55
2022/05/17 05:53:18;;;;;;;;;;;;;;;;;;5046927;28;19996;-57
2022/05/17 05:55:43;;;;;;;;;;;;;;;;;;5046606;28;19948;-56
2022/05/17 05:58:10;;;;;;;;;;;;;;;;;;5046519;28;19921;-57
2022/05/17 06:00:36;;;;;;;;;;;;;;;;;;5047312;28;19924;-56
2022/05/17 06:03:02;;;;;;;;;;;;;;;;;;5045408;28;20294;-56
2022/05/17 06:05:30;;;;;;;;;;;;;;;;;;5047415;28;19921;-56
2022/05/17 06:07:55;;;;;;;;;;;;;;;;;;5043395;28;20351;-56
2022/05/17 06:10:21;;;;;;;;;;;;;;;;;;5048076;28;19959;-58
2022/05/17 06:12:46;;;;;;;;;;;;;;;;;;5046785;28;19999;-56
2022/05/17 06:15:12;;;;;;;;;;;;;;;;;;5045761;28;20437;-56
2022/05/17 06:17:38;;;;;;;;;;;;;;;;;;5043945;28;19924;-57
2022/05/17 06:20:05;;;;;;;;;;;;;;;;;;5046057;28;19974;-55
2022/05/17 06:22:30;;;;;;;;;;;;;;;;;;5045883;28;19919;-56
2022/05/17 06:24:55;;;;;;;;;;;;;;;;;;5045805;28;19921;-56
2022/05/17 06:27:21;;;;;;;;;;;;;;;;;;5043487;28;20663;-56
2022/05/17 06:29:46;;;;;;;;;;;;;;;;;;5048559;28;19924;-56
2022/05/17 06:32:12;;;;;;;;;;;;;;;;;;5050487;28;19921;-56
2022/05/17 06:34:38;;;;;;;;;;;;;;;;;;5050108;28;19920;-55
2022/05/17 06:37:04;;;;;;;;;;;;;;;;;;5050127;28;19921;-56
2022/05/17 06:39:29;;;;;;;;;;;;;;;;;;5050091;28;20275;-56
2022/05/17 06:41:55;;;;;;;;;;;;;;;;;;5049922;28;19925;-54
2022/05/17 06:44:20;;;;;;;;;;;;;;;;;;5048081;28;19921;-58
2022/05/17 06:46:45;;;;;;;;;;;;;;;;;;5047348;28;20437;-56
2022/05/17 06:49:11;;;;;;;;;;;;;;;;;;5047808;28;20385;-57
2022/05/17 06:51:37;;;;;;;;;;;;;;;;;;5049883;28;19925;-62
2022/05/17 06:54:03;;;;;;;;;;;;;;;;;;5049382;28;19920;-57
2022/05/17 06:56:28;;;;;;;;;;;;;;;;;;5050420;28;20007;-57
2022/05/17 06:58:55;;;;;;;;;;;;;;;;;;5049599;28;20008;-56
2022/05/17 07:01:21;;;;;;;;;;;;;;;;;;5047919;28;19917;-56
2022/05/17 07:03:46;;;;;;;;;;;;;;;;;;5049700;28;20275;-57
2022/05/17 07:06:11;;;;;;;;;;;;;;;;;;5047941;28;19966;-58
2022/05/17 07:08:37;;;;;;;;;;;;;;;;;;5048854;28;19940;-58
2022/05/17 07:13:46;;;;;;;;;;;;;;;;;;5049774;28;19927;-58
2022/05/17 07:16:11;;;;;;;;;;;;;;;;;;5048820;28;19917;-57
2022/05/17 07:18:36;;;;;;;;;;;;;;;;;;5049034;28;19923;-58
2022/05/17 07:21:02;;;;;;;;;;;;;;;;;;5049357;28;19926;-59
2022/05/17 07:23:27;;;;;;;;;;;;;;;;;;5048647;28;20298;-56
2022/05/17 07:25:53;;;;;;;;;;;;;;;;;;5047458;28;19921;-59
2022/05/17 07:28:19;;;;;;;;;;;;;;;;;;5048995;28;19973;-58
2022/05/17 07:30:45;;;;;;;;;;;;;;;;;;5049367;28;19925;-58
2022/05/17 07:33:11;;;;;;;;;;;;;;;;;;5048986;28;20362;-58
2022/05/17 07:35:36;;;;;;;;;;;;;;;;;;5047002;28;19917;-58
2022/05/17 07:38:02;;;;;;;;;;;;;;;;;;5047607;28;20439;-58
2022/05/17 07:40:28;;;;;;;;;;;;;;;;;;5046549;28;19924;-58
2022/05/17 07:42:54;;;;;;;;;;;;;;;;;;5048501;28;19916;-58
2022/05/17 07:45:20;;;;;;;;;;;;;;;;;;5046854;28;19928;-58
2022/05/17 07:47:46;;;;;;;;;;;;;;;;;;5047147;28;19920;-57
2022/05/17 07:50:11;;;;;;;;;;;;;;;;;;5049258;28;20382;-58
2022/05/17 07:52:36;;;;;;;;;;;;;;;;;;5048421;28;19923;-57
2022/05/17 07:55:02;;;;;;;;;;;;;;;;;;5047120;28;19920;-58
2022/05/17 07:57:28;;;;;;;;;;;;;;;;;;5048453;28;19921;-58
2022/05/17 07:59:53;;;;;;;;;;;;;;;;;;5048004;28;19916;-58
2022/05/17 08:02:18;;;;;;;;;;;;;;;;;;5048437;28;19952;-58
2022/05/17 08:04:44;;;;;;;;;;;;;;;;;;5047433;28;19924;-56
2022/05/17 08:07:09;;;;;;;;;;;;;;;;;;5047518;28;19927;-58
2022/05/17 08:09:35;;;;;;;;;;;;;;;;;;5047029;28;19959;-57
2022/05/17 08:12:01;;;;;;;;;;;;;;;;;;5048840;28;20573;-58
2022/05/17 08:14:26;;;;;;;;;;;;;;;;;;5047542;28;19963;-56
2022/05/17 08:16:51;;;;;;;;;;;;;;;;;;5046778;28;19916;-56
2022/05/17 08:19:17;;;;;;;;;;;;;;;;;;5048190;28;19921;-57
2022/05/17 08:21:43;;;;;;;;;;;;;;;;;;5048570;28;19921;-57
2022/05/17 08:24:08;;;;;;;;;;;;;;;;;;5047403;28;19917;-58
2022/05/17 08:29:17;;;;;;;;;;;;;;;;;;5046683;28;19990;-57
2022/05/17 08:33:14;;;;;;;;;;;;;;;;;;5047133;28;20594;-59
2022/05/17 08:34:28;;;;;;;;;;;;;;;;;;5047900;28;19924;-57
2022/05/17 08:36:54;;;;;;;;;;;;;;;;;;5046803;28;19925;-57
2022/05/17 08:39:19;;;;;;;;;;;;;;;;;;5047013;28;20310;-58
2022/05/17 08:41:48;;;;;;;;;;;;;;;;;;5047041;28;19924;-58
2022/05/17 08:44:15;;;;;;;;;;;;;;;;;;5046823;28;19931;-58
2022/05/17 08:46:59;;;;;;;;;;;;;;;;;;5046606;28;19931;-57
2022/05/17 08:49:26;;;;;;;;;;;;;;;;;;5044367;28;20368;-58
2022/05/17 08:51:51;;;;;;;;;;;;;;;;;;5045029;28;20164;-58
2022/05/17 08:54:19;;;;;;;;;;;;;;;;;;5047102;28;20358;-58
2022/05/17 08:56:46;;;;;;;;;;;;;;;;;;5046367;28;19955;-57
2022/05/17 08:59:14;;;;;;;;;;;;;;;;;;5046255;28;19978;-57
2022/05/17 09:01:51;;;;;;;;;;;;;;;;;;5046593;28;19974;-58
2022/05/17 09:04:35;;;;;;;;;;;;;;;;;;5047383;28;19921;-58
2022/05/17 09:07:19;;;;;;;;;;;;;;;;;;5041035;28;20285;-57
2022/05/17 09:09:54;;;;;;;;;;;;;;;;;;5046974;28;20309;-57
2022/05/17 09:12:28;;;;;;;;;;;;;;;;;;5047161;28;20226;-57
2022/05/17 09:14:55;;;;;;;;;;;;;;;;;;5043110;28;20360;-58
2022/05/17 09:17:22;;;;;;;;;;;;;;;;;;5046145;28;20290;-57
2022/05/17 09:19:51;;;;;;;;;;;;;;;;;;5047691;28;19924;-57
2022/05/17 09:22:17;;;;;;;;;;;;;;;;;;5045752;28;20370;-57
2022/05/17 09:24:49;;;;;;;;;;;;;;;;;;5046904;28;19921;-59
2022/05/17 09:27:35;;;;;;;;;;;;;;;;;;5046728;28;19928;-58
2022/05/17 09:30:03;;;;;;;;;;;;;;;;;;5047174;28;19924;-58
2022/05/17 09:32:30;;;;;;;;;;;;;;;;;;5046757;28;20089;-58
2022/05/17 09:34:59;;;;;;;;;;;;;;;;;;5045507;28;20417;-58
2022/05/17 09:37:30;;;;;;;;;;;;;;;;;;5046511;28;20007;-58
2022/05/17 09:39:55;;;;;;;;;;;;;;;;;;5044280;28;19924;-59
2022/05/17 09:42:34;;;;;;;;;;;;;;;;;;5047317;28;20322;-58
2022/05/17 09:45:02;;;;;;;;;;;;;;;;;;5042713;28;20029;-57
2022/05/17 09:47:31;;;;;;;;;;;;;;;;;;5045774;28;19938;-58
2022/05/17 09:52:44;;;;;;;;;;;;;;;;;;5044473;28;20388;-57
2022/05/17 09:55:14;;;;;;;;;;;;;;;;;;5044803;28;19952;-57
2022/05/17 09:57:52;;;;;;;;;;;;;;;;;;5043870;28;19920;-57
2022/05/17 10:00:22;;;;;;;;;;;;;;;;;;5043340;28;19974;-57
2022/05/17 10:02:50;;;;;;;;;;;;;;;;;;5046270;28;19958;-57
2022/05/17 10:05:18;;;;;;;;;;;;;;;;;;5049480;28;19928;-58
2022/05/17 10:08:10;;;;;;;;;;;;;;;;;;5048572;28;19920;-58
2022/05/17 10:10:39;;;;;;;;;;;;;;;;;;5046680;28;19967;-57
2022/05/17 10:13:25;;;;;;;;;;;;;;;;;;5048856;28;19970;-58
2022/05/17 10:15:53;;;;;;;;;;;;;;;;;;5046918;28;19925;-57
2022/05/17 10:18:37;;;;;;;;;;;;;;;;;;5048725;28;20352;-57
2022/05/17 10:21:06;;;;;;;;;;;;;;;;;;5049380;28;20386;-57
2022/05/17 10:23:31;;;;;;;;;;;;;;;;;;5050626;28;19960;-59
2022/05/17 10:26:02;;;;;;;;;;;;;;;;;;5050419;28;19968;-58
2022/05/17 10:28:28;;;;;;;;;;;;;;;;;;5049715;28;19925;-58
2022/05/17 10:30:53;;;;;;;;;;;;;;;;;;5051021;28;19916;-57
2022/05/17 10:33:26;;;;;;;;;;;;;;;;;;5050409;28;19983;-57
2022/05/17 10:35:55;;;;;;;;;;;;;;;;;;5047765;28;20042;-57
2022/05/17 10:38:29;;;;;;;;;;;;;;;;;;5050296;28;19912;-59
2022/05/17 10:40:55;;;;;;;;;;;;;;;;;;5047725;28;19968;-58
2022/05/17 10:43:20;;;;;;;;;;;;;;;;;;5048856;28;20391;-58
2022/05/17 10:45:46;;;;;;;;;;;;;;;;;;5048412;28;19925;-58
2022/05/17 10:48:21;;;;;;;;;;;;;;;;;;5049011;28;20007;-57
2022/05/17 10:50:52;;;;;;;;;;;;;;;;;;5050508;28;20050;-56
2022/05/17 10:53:27;;;;;;;;;;;;;;;;;;5050271;28;19928;-57
2022/05/17 10:56:11;;;;;;;;;;;;;;;;;;5050551;28;19962;-57
2022/05/17 10:58:44;;;;;;;;;;;;;;;;;;5047653;28;19916;-57
2022/05/17 11:01:12;;;;;;;;;;;;;;;;;;5049736;28;19957;-58
2022/05/17 11:04:00;;;;;;;;;;;;;;;;;;5050432;28;19948;-57
2022/05/17 11:06:29;;;;;;;;;;;;;;;;;;5019763;28;19966;-57
2022/05/17 11:08:57;;;;;;;;;;;;;;;;;;5049136;28;19917;-57
2022/05/17 11:11:43;;;;;;;;;;;;;;;;;;5046195;28;19921;-58
2022/05/17 11:14:12;;;;;;;;;;;;;;;;;;5025771;28;19923;-57
2022/05/17 11:16:54;;;;;;;;;;;;;;;;;;5047094;28;19952;-58
2022/05/17 11:19:22;;;;;;;;;;;;;;;;;;5044728;28;19921;-57
2022/05/17 11:21:54;;;;;;;;;;;;;;;;;;5049082;28;19919;-58
2022/05/17 11:24:34;;;;;;;;;;;;;;;;;;5049214;28;19975;-58
2022/05/17 11:27:03;;;;;;;;;;;;;;;;;;5048241;28;19925;-58
2022/05/17 11:29:29;;;;;;;;;;;;;;;;;;5048196;28;19928;-58
2022/05/17 11:32:14;;;;;;;;;;;;;;;;;;5047342;28;20003;-57
2022/05/17 11:34:41;;;;;;;;;;;;;;;;;;5047118;28;19970;-58
2022/05/17 11:37:08;;;;;;;;;;;;;;;;;;5048434;28;19919;-59
2022/05/17 11:39:36;;;;;;;;;;;;;;;;;;5046941;28;19920;-58
2022/05/17 11:42:06;;;;;;;;;;;;;;;;;;5047590;28;19964;-59
2022/05/17 11:44:41;;;;;;;;;;;;;;;;;;5047952;28;19920;-59
2022/05/17 11:47:25;;;;;;;;;;;;;;;;;;5047705;28;19956;-59
2022/05/17 11:49:51;;;;;;;;;;;;;;;;;;5046742;28;19959;-58
2022/05/17 11:52:24;;;;;;;;;;;;;;;;;;5047586;28;19944;-57
2022/05/17 11:54:51;;;;;;;;;;;;;;;;;;5045490;28;19960;-58
2022/05/17 11:57:23;;;;;;;;;;;;;;;;;;5045528;28;19947;-57
2022/05/17 11:59:55;;;;;;;;;;;;;;;;;;5047615;28;20332;-58
2022/05/17 12:02:39;;;;;;;;;;;;;;;;;;5047729;28;20337;-58
2022/05/17 12:05:06;;;;;;;;;;;;;;;;;;5046697;28;19948;-59
2022/05/17 12:07:32;;;;;;;;;;;;;;;;;;5047527;28;19933;-59
2022/05/17 12:10:08;;;;;;;;;;;;;;;;;;5047581;28;19947;-58
2022/05/17 12:12:43;;;;;;;;;;;;;;;;;;5047045;28;19927;-57
2022/05/17 12:15:11;;;;;;;;;;;;;;;;;;5045672;28;19927;-58
2022/05/17 12:17:53;;;;;;;;;;;;;;;;;;5044964;28;20290;-58
2022/05/17 12:20:26;;;;;;;;;;;;;;;;;;5048139;28;19956;-59
2022/05/17 12:22:51;;;;;;;;;;;;;;;;;;5046691;28;19921;-58
2022/05/17 12:25:20;;;;;;;;;;;;;;;;;;5043429;28;20007;-58
2022/05/17 12:27:46;;;;;;;;;;;;;;;;;;5045624;28;19978;-58
2022/05/17 12:30:53;;;;;;;;;;;;;;;;;;5046875;28;19936;-59
2022/05/17 12:33:27;;;;;;;;;;;;;;;;;;5047352;28;19921;-59
2022/05/17 12:35:53;;;;;;;;;;;;;;;;;;5039375;28;20019;-59
2022/05/17 12:43:56;;;;;;;;;;;;;;;;;;5049040;28;19975;-57
2022/05/17 12:46:30;;;;;;;;;;;;;;;;;;5045836;28;20394;-59
2022/05/17 12:48:56;;;;;;;;;;;;;;;;;;5045496;28;19917;-58
2022/05/17 12:51:22;;;;;;;;;;;;;;;;;;5047480;28;20363;-60
2022/05/17 12:53:54;;;;;;;;;;;;;;;;;;5045956;28;19920;-57
2022/05/17 12:56:19;;;;;;;;;;;;;;;;;;5041252;28;19920;-59
2022/05/17 12:58:59;;;;;;;;;;;;;;;;;;5044915;28;19931;-59
2022/05/17 13:01:25;;;;;;;;;;;;;;;;;;5046939;28;19971;-57
2022/05/17 13:03:52;;;;;;;;;;;;;;;;;;5044979;28;19916;-59
2022/05/17 13:06:18;;;;;;;;;;;;;;;;;;5047041;28;19964;-60
2022/05/17 13:08:44;;;;;;;;;;;;;;;;;;5045615;28;20214;-59
2022/05/17 13:11:14;;;;;;;;;;;;;;;;;;5048016;28;19917;-58
2022/05/17 13:13:41;;;;;;;;;;;;;;;;;;5047702;28;20400;-58
2022/05/17 13:16:13;;;;;;;;;;;;;;;;;;5046256;28;19921;-59
2022/05/17 13:18:41;;;;;;;;;;;;;;;;;;5044693;28;19963;-59
2022/05/17 13:21:11;;;;;;;;;;;;;;;;;;5047626;28;19921;-59
2022/05/17 13:23:37;;;;;;;;;;;;;;;;;;5046624;28;19924;-59
2022/05/17 13:26:03;;;;;;;;;;;;;;;;;;5046635;28;19968;-59
2022/05/17 13:28:31;;;;;;;;;;;;;;;;;;5047582;28;19913;-60
2022/05/17 13:31:03;;;;;;;;;;;;;;;;;;5048532;28;20031;-59
2022/05/17 13:33:31;;;;;;;;;;;;;;;;;;5046250;28;20403;-57
2022/05/17 13:36:08;;;;;;;;;;;;;;;;;;5044884;28;19942;-58
2022/05/17 13:38:37;;;;;;;;;;;;;;;;;;5048844;28;19955;-58
2022/05/17 13:41:04;;;;;;;;;;;;;;;;;;5049124;28;19962;-58
2022/05/17 13:43:36;;;;;;;;;;;;;;;;;;5049618;28;19917;-56
2022/05/17 13:46:21;;;;;;;;;;;;;;;;;;5049817;28;19927;-58
2022/05/17 13:48:49;;;;;;;;;;;;;;;;;;5049382;28;19970;-58
2022/05/17 13:51:16;;;;;;;;;;;;;;;;;;5050518;28;19974;-58
2022/05/17 13:53:46;;;;;;;;;;;;;;;;;;5048943;28;19920;-57
2022/05/17 13:56:12;;;;;;;;;;;;;;;;;;5049061;28;20275;-58
2022/05/17 13:58:38;;;;;;;;;;;;;;;;;;5049686;28;19924;-58
2022/05/17 14:01:06;;;;;;;;;;;;;;;;;;5051357;28;19921;-57
2022/05/17 14:03:32;;;;;;;;;;;;;;;;;;5049154;28;19920;-58
2022/05/17 14:05:58;;;;;;;;;;;;;;;;;;5051069;28;19943;-58
2022/05/17 14:13:56;;;;;;;;;;;;;;;;;;5049630;28;19982;-58
2022/05/17 14:16:23;;;;;;;;;;;;;;;;;;5050538;28;19917;-59
2022/05/17 14:18:49;;;;;;;;;;;;;;;;;;5050175;28;20025;-59
2022/05/17 14:21:15;;;;;;;;;;;;;;;;;;5051182;28;19947;-59
2022/05/17 14:23:41;;;;;;;;;;;;;;;;;;5051648;28;20339;-60
2022/05/17 14:26:06;;;;;;;;;;;;;;;;;;5048587;28;19927;-58
2022/05/17 14:28:32;;;;;;;;;;;;;;;;;;5049908;28;19924;-58
2022/05/17 14:30:58;;;;;;;;;;;;;;;;;;5047085;28;19921;-58
2022/05/17 14:33:23;;;;;;;;;;;;;;;;;;5050269;28;19920;-60
2022/05/17 14:35:52;;;;;;;;;;;;;;;;;;5049652;28;19921;-59
2022/05/17 14:38:18;;;;;;;;;;;;;;;;;;5049604;28;20016;-60
2022/05/17 14:40:45;;;;;;;;;;;;;;;;;;5050099;28;20015;-58
2022/05/17 14:43:10;;;;;;;;;;;;;;;;;;5048416;28;19917;-58
2022/05/17 14:45:36;;;;;;;;;;;;;;;;;;5049016;28;20382;-59
2022/05/17 14:48:01;;;;;;;;;;;;;;;;;;5049233;28;19917;-59
2022/05/17 14:50:27;;;;;;;;;;;;;;;;;;5049720;28;19977;-58
2022/05/17 14:52:54;;;;;;;;;;;;;;;;;;5048793;28;20396;-58
2022/05/17 14:55:21;;;;;;;;;;;;;;;;;;5047462;28;20374;-58
2022/05/17 14:57:47;;;;;;;;;;;;;;;;;;5049172;28;19917;-59
2022/05/17 15:00:14;;;;;;;;;;;;;;;;;;5046870;28;19928;-59
2022/05/17 15:02:43;;;;;;;;;;;;;;;;;;5049371;28;19959;-59
2022/05/17 15:05:08;;;;;;;;;;;;;;;;;;5049762;28;19917;-60
2022/05/17 15:07:35;;;;;;;;;;;;;;;;;;5048658;28;20023;-59
2022/05/17 15:10:04;;;;;;;;;;;;;;;;;;5050379;28;19921;-58
2022/05/17 15:12:30;;;;;;;;;;;;;;;;;;5049013;28;19917;-59
2022/05/17 15:14:55;;;;;;;;;;;;;;;;;;5048758;28;19916;-59
2022/05/17 15:17:21;;;;;;;;;;;;;;;;;;5047124;28;20401;-58
2022/05/17 15:19:47;;;;;;;;;;;;;;;;;;5049762;28;20382;-59
2022/05/17 15:22:14;;;;;;;;;;;;;;;;;;5048664;28;19925;-57
2022/05/17 15:24:40;;;;;;;;;;;;;;;;;;5048343;28;19917;-60
2022/05/17 15:27:06;;;;;;;;;;;;;;;;;;5049776;28;20012;-61
2022/05/17 15:29:31;;;;;;;;;;;;;;;;;;5048596;28;19920;-57
2022/05/17 15:31:56;;;;;;;;;;;;;;;;;;5046807;28;19927;-60
2022/05/17 15:34:22;;;;;;;;;;;;;;;;;;5045381;28;19923;-59
2022/05/17 15:36:48;;;;;;;;;;;;;;;;;;5050356;28;19923;-59
2022/05/17 15:39:13;;;;;;;;;;;;;;;;;;5043881;28;20336;-59
2022/05/17 15:41:38;;;;;;;;;;;;;;;;;;5050931;28;19913;-58
2022/05/17 15:44:04;;;;;;;;;;;;;;;;;;5050414;28;19944;-58
2022/05/17 15:53:15;;;;;;;;;;;;;;;;;;5049924;28;19948;-59
2022/05/17 15:54:43;;;;;;;;;;;;;;;;;;5049301;28;20510;-58
2022/05/17 15:57:09;;;;;;;;;;;;;;;;;;5049505;28;19921;-56
2022/05/17 15:59:35;;;;;;;;;;;;;;;;;;5048984;28;19916;-56
2022/05/17 16:02:01;;;;;;;;;;;;;;;;;;5049069;28;20405;-56
2022/05/17 16:09:54;;;;;;;;;;;;;;;;;;5045256;28;19928;-57
2022/05/17 16:12:19;;;;;;;;;;;;;;;;;;5050080;28;19921;-58
2022/05/17 16:14:45;;;;;;;;;;;;;;;;;;5049339;28;19924;-58
2022/05/17 16:17:11;;;;;;;;;;;;;;;;;;5048175;28;20271;-57
2022/05/17 16:19:43;;;;;;;;;;;;;;;;;;5048812;28;20362;-58
2022/05/17 16:22:16;;;;;;;;;;;;;;;;;;5061113;28;20027;-57
2022/05/17 16:24:42;;;;;;;;;;;;;;;;;;5063514;28;20012;-58
2022/05/17 16:27:09;;;;;;;;;;;;;;;;;;5059166;28;19921;-58
2022/05/17 16:29:34;;;;;;;;;;;;;;;;;;5055633;28;19917;-57
2022/05/17 16:32:01;;;;;;;;;;;;;;;;;;5060415;28;19925;-57
2022/05/17 16:34:27;;;;;;;;;;;;;;;;;;5058223;28;20301;-57
2022/05/17 16:36:54;;;;;;;;;;;;;;;;;;5056866;28;19917;-58
2022/05/17 16:39:20;;;;;;;;;;;;;;;;;;5062890;28;19916;-58
2022/05/17 16:41:45;;;;;;;;;;;;;;;;;;5060682;28;20027;-58
2022/05/17 16:44:11;;;;;;;;;;;;;;;;;;5060798;28;19917;-58
2022/05/17 16:46:37;;;;;;;;;;;;;;;;;;5055584;28;19959;-57
2022/05/17 16:49:04;;;;;;;;;;;;;;;;;;5055716;28;19923;-58
2022/05/17 16:51:32;;;;;;;;;;;;;;;;;;5059661;28;20368;-57
2022/05/17 16:53:58;;;;;;;;;;;;;;;;;;5060278;28;19981;-56
2022/05/17 16:56:23;;;;;;;;;;;;;;;;;;5049318;28;20343;-57
2022/05/17 16:58:48;;;;;;;;;;;;;;;;;;5057854;28;20031;-59
2022/05/17 17:01:15;;;;;;;;;;;;;;;;;;5059513;28;19921;-58
2022/05/17 17:03:41;;;;;;;;;;;;;;;;;;5058151;28;20405;-58
2022/05/17 17:06:10;;;;;;;;;;;;;;;;;;5057022;28;20031;-57
2022/05/17 17:08:35;;;;;;;;;;;;;;;;;;5060026;28;19917;-58
2022/05/17 17:11:00;;;;;;;;;;;;;;;;;;5058471;28;19943;-57
2022/05/17 17:13:26;;;;;;;;;;;;;;;;;;5057718;28;20275;-58
2022/05/17 17:15:52;;;;;;;;;;;;;;;;;;5053024;28;19916;-57
2022/05/17 17:18:17;;;;;;;;;;;;;;;;;;5051664;28;19920;-57
2022/05/17 17:20:42;;;;;;;;;;;;;;;;;;5065071;28;20381;-58
2022/05/17 17:23:08;;;;;;;;;;;;;;;;;;5074849;28;19916;-58
2022/05/17 17:25:37;;;;;;;;;;;;;;;;;;5078662;28;19912;-57